Time;durP1;ratioP1;P1;durP2;ratioP2;P2;SDS_P1;SDS_P2;PMS_P1;PMS_P2;Temp;Humidity;BMP_temperature;BMP_pressure;BME280_temperature;BME280_humidity;BME280_pressure;Samples;Min_cycle;Max_cycle;Signal;HPM_P1;HPM_P2
2023/05/30 00:01:43;;;;;;;11.30;2.80;;;11.40;99.90;;;;;;5095946;28;20476;-70
2023/05/30 00:04:09;;;;;;;12.30;2.70;;;11.70;99.90;;;;;;5103045;28;20063;-71
2023/05/30 00:06:35;;;;;;;16.15;3.60;;;11.40;99.90;;;;;;5100098;28;20055;-73
2023/05/30 00:09:01;;;;;;;11.93;2.88;;;11.40;99.90;;;;;;5080864;28;20043;-71
2023/05/30 00:11:28;;;;;;;11.02;2.47;;;11.40;99.90;;;;;;5099540;28;20040;-71
2023/05/30 00:13:55;;;;;;;11.57;2.83;;;11.40;99.90;;;;;;5095261;28;20044;-72
2023/05/30 00:16:22;;;;;;;12.82;2.80;;;11.50;99.90;;;;;;5080828;28;20051;-70
2023/05/30 00:18:48;;;;;;;12.38;3.60;;;11.30;99.90;;;;;;5094010;28;20046;-72
2023/05/30 00:21:14;;;;;;;15.55;3.50;;;11.60;99.90;;;;;;5101799;28;20048;-71
2023/05/30 00:23:39;;;;;;;14.43;2.83;;;11.30;99.90;;;;;;5098768;28;20126;-71
2023/05/30 00:26:08;;;;;;;14.10;3.80;;;11.30;99.90;;;;;;5099732;28;20372;-71
2023/05/30 00:28:35;;;;;;;10.25;3.33;;;11.20;99.90;;;;;;5097204;28;20200;-72
2023/05/30 00:31:00;;;;;;;11.90;3.33;;;11.30;99.90;;;;;;5085768;28;20043;-71
2023/05/30 00:33:26;;;;;;;15.98;3.13;;;11.30;99.90;;;;;;5080287;28;20036;-72
2023/05/30 00:35:52;;;;;;;16.98;3.33;;;11.40;99.90;;;;;;5100327;28;20039;-71
2023/05/30 00:38:17;;;;;;;13.75;3.97;;;11.20;99.90;;;;;;5098960;28;20035;-70
2023/05/30 00:40:44;;;;;;;12.82;3.10;;;11.20;99.90;;;;;;5102840;28;20501;-71
2023/05/30 00:43:09;;;;;;;10.15;3.13;;;11.20;99.90;;;;;;5096605;28;20051;-72
2023/05/30 00:45:35;;;;;;;14.55;3.13;;;11.20;99.90;;;;;;5099384;28;20104;-71
2023/05/30 00:48:01;;;;;;;18.33;3.40;;;11.20;99.90;;;;;;5081162;28;20531;-71
2023/05/30 00:50:30;;;;;;;12.98;2.60;;;11.20;99.90;;;;;;5101996;28;20040;-71
2023/05/30 00:52:57;;;;;;;13.80;2.78;;;11.20;99.90;;;;;;5101726;28;20486;-70
2023/05/30 00:55:24;;;;;;;12.23;2.88;;;11.40;99.90;;;;;;5092696;28;20050;-71
2023/05/30 00:57:51;;;;;;;12.98;3.17;;;11.20;99.90;;;;;;5091655;28;20036;-71
2023/05/30 01:00:17;;;;;;;12.75;3.10;;;11.20;99.90;;;;;;5100470;28;20123;-71
2023/05/30 01:02:44;;;;;;;9.73;2.30;;;11.20;99.90;;;;;;5098450;28;20135;-72
2023/05/30 01:05:14;;;;;;;10.15;2.45;;;11.40;99.90;;;;;;5094205;28;20054;-71
2023/05/30 01:07:43;;;;;;;12.73;3.42;;;11.20;99.90;;;;;;5072525;28;20055;-72
2023/05/30 01:10:15;;;;;;;16.27;3.05;;;11.30;99.90;;;;;;5097417;28;20085;-72
2023/05/30 01:13:12;;;;;;;13.07;2.65;;;11.20;99.90;;;;;;5098791;28;20512;-72
2023/05/30 01:15:49;;;;;;;12.00;2.90;;;11.10;99.90;;;;;;5098292;28;20126;-71
2023/05/30 01:18:33;;;;;;;14.32;2.60;;;11.10;99.90;;;;;;5090814;28;20056;-71
2023/05/30 01:21:03;;;;;;;17.15;2.78;;;11.10;99.90;;;;;;5086845;28;20067;-71
2023/05/30 01:23:52;;;;;;;12.40;3.13;;;11.10;99.90;;;;;;5101605;28;20161;-71
2023/05/30 01:26:40;;;;;;;12.82;2.70;;;11.10;99.90;;;;;;5092963;28;20043;-71
2023/05/30 01:29:07;;;;;;;14.23;3.03;;;11.10;99.90;;;;;;5072911;28;20048;-71
2023/05/30 01:31:33;;;;;;;19.50;3.42;;;11.30;99.90;;;;;;5080112;28;20048;-71
2023/05/30 01:34:00;;;;;;;14.43;2.80;;;11.10;99.90;;;;;;5092320;28;20372;-71
2023/05/30 01:36:29;;;;;;;15.85;3.53;;;11.20;99.90;;;;;;5097692;28;20039;-72
2023/05/30 01:38:54;;;;;;;12.23;2.92;;;11.10;99.90;;;;;;5100206;28;20470;-72
2023/05/30 01:41:30;;;;;;;13.38;3.63;;;11.10;99.90;;;;;;5097783;28;20032;-72
2023/05/30 01:44:25;;;;;;;12.18;2.92;;;11.00;99.90;;;;;;5098716;28;20097;-71
2023/05/30 01:47:03;;;;;;;12.95;3.10;;;11.10;99.90;;;;;;5093161;28;20043;-74
2023/05/30 01:49:45;;;;;;;16.08;3.60;;;11.10;99.90;;;;;;5087260;28;20114;-73
2023/05/30 01:52:17;;;;;;;10.13;2.40;;;11.10;99.90;;;;;;5099141;28;20114;-71
2023/05/30 01:54:47;;;;;;;13.02;3.45;;;11.00;99.90;;;;;;5090473;28;20048;-72
2023/05/30 01:57:16;;;;;;;14.27;2.97;;;11.10;99.90;;;;;;5097798;28;20047;-73
2023/05/30 01:59:42;;;;;;;15.13;3.47;;;11.10;99.90;;;;;;5079557;28;20052;-73
2023/05/30 02:02:09;;;;;;;15.07;3.25;;;11.10;99.90;;;;;;5094471;28;20039;-72
2023/05/30 02:04:36;;;;;;;13.55;2.95;;;11.00;99.90;;;;;;5079830;28;20162;-74
2023/05/30 02:07:03;;;;;;;13.05;3.33;;;11.20;99.90;;;;;;5080489;28;20546;-71
2023/05/30 02:09:29;;;;;;;10.00;2.55;;;11.10;99.90;;;;;;5097892;28;20051;-72
2023/05/30 02:11:55;;;;;;;12.60;2.80;;;11.10;99.90;;;;;;5084747;28;20394;-72
2023/05/30 02:14:22;;;;;;;13.88;2.67;;;11.10;99.90;;;;;;5091351;28;20646;-70
2023/05/30 02:16:48;;;;;;;9.07;2.80;;;11.00;99.90;;;;;;5079252;28;20048;-72
2023/05/30 02:19:14;;;;;;;9.75;3.00;;;11.10;99.90;;;;;;5100338;28;20562;-71
2023/05/30 02:21:40;;;;;;;11.38;3.28;;;11.10;99.90;;;;;;5082900;28;20048;-73
2023/05/30 02:24:06;;;;;;;13.63;3.45;;;11.10;99.90;;;;;;5098287;28;20535;-71
2023/05/30 02:26:34;;;;;;;16.05;2.65;;;11.00;99.90;;;;;;5094520;28;20086;-71
2023/05/30 02:29:00;;;;;;;13.07;3.28;;;11.30;99.90;;;;;;5088053;28;20040;-69
2023/05/30 02:31:26;;;;;;;10.00;2.58;;;11.10;99.90;;;;;;5104736;28;20102;-71
2023/05/30 02:33:51;;;;;;;13.60;2.70;;;11.10;99.90;;;;;;5095495;28;20056;-72
2023/05/30 02:36:17;;;;;;;11.88;2.85;;;11.10;99.90;;;;;;5104362;28;20052;-70
2023/05/30 02:38:42;;;;;;;14.50;2.80;;;11.00;99.90;;;;;;5094905;28;20463;-74
2023/05/30 02:41:08;;;;;;;12.93;2.75;;;11.20;99.90;;;;;;5101291;28;20495;-74
2023/05/30 02:43:34;;;;;;;11.75;3.03;;;11.10;99.90;;;;;;5091399;28;20105;-72
2023/05/30 02:46:01;;;;;;;13.57;2.92;;;11.00;99.90;;;;;;5080457;28;20304;-72
2023/05/30 02:48:26;;;;;;;15.13;3.45;;;11.20;99.90;;;;;;5101148;28;20083;-73
2023/05/30 02:50:52;;;;;;;10.25;2.72;;;11.00;99.90;;;;;;5093815;28;20551;-72
2023/05/30 02:53:17;;;;;;;12.07;3.10;;;11.00;99.90;;;;;;5103644;28;20139;-72
2023/05/30 02:55:43;;;;;;;11.80;3.00;;;11.10;99.90;;;;;;5098509;28;20032;-74
2023/05/30 02:58:11;;;;;;;10.85;2.88;;;11.30;99.90;;;;;;5094055;28;20491;-71
2023/05/30 03:00:38;;;;;;;13.30;2.75;;;11.10;99.90;;;;;;5082431;28;20044;-71
2023/05/30 03:03:04;;;;;;;13.95;3.13;;;11.00;99.90;;;;;;5100773;28;20138;-71
2023/05/30 03:05:29;;;;;;;9.68;3.15;;;11.50;99.90;;;;;;5097987;28;20125;-71
2023/05/30 03:07:55;;;;;;;19.90;4.60;;;11.10;99.90;;;;;;5098565;28;20418;-71
2023/05/30 03:10:21;;;;;;;10.27;3.08;;;11.10;99.90;;;;;;5082755;28;20101;-71
2023/05/30 03:12:46;;;;;;;16.63;3.05;;;11.40;99.90;;;;;;5095709;28;20036;-72
2023/05/30 03:15:12;;;;;;;17.20;3.67;;;11.10;99.90;;;;;;5075747;28;20066;-71
2023/05/30 03:17:41;;;;;;;17.70;3.45;;;11.20;99.90;;;;;;5099305;28;20567;-72
2023/05/30 03:20:07;;;;;;;14.20;3.33;;;11.10;99.90;;;;;;5100358;28;20040;-71
2023/05/30 03:22:34;;;;;;;11.13;3.28;;;11.10;99.90;;;;;;5100730;28;20050;-71
2023/05/30 03:24:59;;;;;;;11.63;3.15;;;11.10;99.90;;;;;;5095687;28;20065;-72
2023/05/30 03:27:25;;;;;;;14.45;3.80;;;11.30;99.90;;;;;;5097142;28;20051;-71
2023/05/30 03:29:52;;;;;;;8.23;3.25;;;11.30;99.90;;;;;;5093948;28;20048;-72
2023/05/30 03:32:18;;;;;;;14.65;3.38;;;11.30;99.90;;;;;;5078857;28;20060;-71
2023/05/30 03:34:45;;;;;;;15.80;3.75;;;11.20;99.90;;;;;;5100936;28;20053;-71
2023/05/30 03:37:11;;;;;;;17.00;3.65;;;11.10;99.90;;;;;;5098229;28;20040;-72
2023/05/30 03:39:37;;;;;;;16.73;3.40;;;11.30;99.90;;;;;;5103405;28;20071;-72
2023/05/30 03:42:03;;;;;;;13.38;3.53;;;11.20;99.90;;;;;;5081658;28;20499;-70
2023/05/30 03:44:28;;;;;;;19.40;3.25;;;11.00;99.90;;;;;;5096894;28;20133;-72
2023/05/30 03:46:54;;;;;;;17.90;3.95;;;11.10;99.90;;;;;;5098550;28;20109;-71
2023/05/30 03:49:20;;;;;;;15.90;3.78;;;11.20;99.90;;;;;;5081723;28;20036;-71
2023/05/30 03:51:46;;;;;;;14.90;3.05;;;11.20;99.90;;;;;;5099827;28;20052;-72
2023/05/30 03:54:11;;;;;;;13.85;3.53;;;11.10;99.90;;;;;;5099627;28;20044;-71
2023/05/30 03:56:37;;;;;;;15.90;3.20;;;11.10;99.90;;;;;;5100184;28;20039;-72
2023/05/30 03:59:02;;;;;;;14.38;3.35;;;11.10;99.90;;;;;;5090888;28;20131;-71
2023/05/30 04:01:28;;;;;;;18.55;3.60;;;11.10;99.90;;;;;;5095162;28;20122;-71
2023/05/30 04:03:54;;;;;;;14.82;3.60;;;11.10;99.90;;;;;;5102689;28;20514;-72
2023/05/30 04:06:20;;;;;;;20.55;3.47;;;11.20;99.90;;;;;;5094162;28;20052;-71
2023/05/30 04:08:45;;;;;;;17.40;3.95;;;11.20;99.90;;;;;;5085836;28;20047;-71
2023/05/30 04:11:11;;;;;;;15.45;3.72;;;11.40;99.90;;;;;;5081118;28;20134;-71
2023/05/30 04:13:36;;;;;;;17.40;3.50;;;11.30;99.90;;;;;;5080017;28;20047;-71
2023/05/30 04:16:02;;;;;;;13.15;4.05;;;11.20;99.90;;;;;;5080498;28;20051;-72
2023/05/30 04:18:28;;;;;;;20.02;3.80;;;11.30;99.90;;;;;;5099296;28;20059;-71
2023/05/30 04:20:53;;;;;;;19.52;3.90;;;11.40;99.90;;;;;;5093688;28;20040;-71
2023/05/30 04:23:19;;;;;;;13.38;3.53;;;11.30;99.90;;;;;;5099201;28;20044;-71
2023/05/30 04:25:47;;;;;;;13.60;3.42;;;11.30;99.90;;;;;;5095275;28;20044;-71
2023/05/30 04:28:16;;;;;;;19.38;3.83;;;11.30;99.90;;;;;;5102623;28;20055;-72
2023/05/30 04:30:48;;;;;;;13.50;3.80;;;11.30;99.90;;;;;;5081409;28;20058;-71
2023/05/30 04:33:18;;;;;;;18.83;3.92;;;11.40;99.90;;;;;;5098360;28;20044;-73
2023/05/30 04:35:44;;;;;;;11.77;3.10;;;11.40;99.90;;;;;;5089851;28;20517;-72
2023/05/30 04:38:10;;;;;;;18.42;3.63;;;11.40;99.90;;;;;;5095351;28;20521;-74
2023/05/30 04:40:36;;;;;;;19.38;4.53;;;11.40;99.90;;;;;;5094334;28;20079;-71
2023/05/30 04:43:02;;;;;;;15.20;3.55;;;11.50;99.90;;;;;;5096010;28;20041;-72
2023/05/30 04:45:31;;;;;;;16.95;3.20;;;11.50;99.90;;;;;;5091642;28;20051;-71
2023/05/30 04:47:56;;;;;;;17.92;4.30;;;11.50;99.90;;;;;;5098493;28;20398;-72
2023/05/30 04:50:24;;;;;;;14.68;3.72;;;11.70;99.90;;;;;;5092951;28;20040;-72
2023/05/30 04:52:50;;;;;;;11.98;4.13;;;11.60;99.90;;;;;;5099094;28;20079;-71
2023/05/30 04:55:17;;;;;;;13.95;3.17;;;11.50;99.90;;;;;;5098838;28;20095;-72
2023/05/30 04:57:43;;;;;;;18.27;3.47;;;11.80;99.90;;;;;;5096200;28;20410;-72
2023/05/30 05:00:15;;;;;;;14.90;3.25;;;11.60;99.90;;;;;;5101882;28;20047;-71
2023/05/30 05:02:42;;;;;;;18.15;3.45;;;11.60;99.90;;;;;;5093806;28;20039;-72
2023/05/30 05:05:08;;;;;;;11.15;3.10;;;11.60;99.90;;;;;;5098660;28;20088;-72
2023/05/30 05:07:34;;;;;;;12.50;3.55;;;11.60;99.90;;;;;;5097151;28;20106;-70
2023/05/30 05:09:59;;;;;;;14.13;3.60;;;11.70;99.90;;;;;;5101731;28;20044;-72
2023/05/30 05:12:25;;;;;;;12.35;3.20;;;11.70;99.90;;;;;;5093360;28;20063;-70
2023/05/30 05:14:50;;;;;;;15.90;3.67;;;11.70;99.90;;;;;;5092181;28;20048;-71
2023/05/30 05:17:16;;;;;;;14.43;3.47;;;12.00;99.90;;;;;;5085766;28;20122;-72
2023/05/30 05:19:42;;;;;;;10.20;2.88;;;12.00;99.90;;;;;;5097675;28;20043;-71
2023/05/30 05:22:07;;;;;;;14.27;3.22;;;11.90;99.90;;;;;;5098480;28;20078;-73
2023/05/30 05:24:33;;;;;;;14.25;2.85;;;11.80;99.90;;;;;;5098967;28;20055;-73
2023/05/30 05:26:59;;;;;;;10.52;2.78;;;11.80;99.90;;;;;;5101461;28;20395;-73
2023/05/30 05:29:25;;;;;;;18.85;3.42;;;11.80;99.90;;;;;;5093319;28;20059;-73
2023/05/30 05:31:51;;;;;;;12.02;2.85;;;11.90;99.90;;;;;;5100012;28;20445;-72
2023/05/30 05:34:17;;;;;;;9.15;2.88;;;11.90;99.90;;;;;;5100822;28;20047;-73
2023/05/30 05:36:43;;;;;;;11.77;2.92;;;11.90;99.90;;;;;;5098581;28;20096;-71
2023/05/30 05:39:08;;;;;;;13.75;3.45;;;12.00;99.90;;;;;;5092335;28;20039;-71
2023/05/30 05:41:34;;;;;;;13.60;3.85;;;11.90;99.90;;;;;;5092942;28;20036;-72
2023/05/30 05:44:00;;;;;;;15.10;2.67;;;12.10;99.90;;;;;;5099834;28;20040;-72
2023/05/30 05:46:26;;;;;;;8.48;2.33;;;11.90;99.90;;;;;;5101542;28;20040;-72
2023/05/30 05:48:54;;;;;;;16.75;3.58;;;11.90;99.90;;;;;;5091894;28;20044;-71
2023/05/30 05:51:20;;;;;;;13.52;3.05;;;12.00;99.90;;;;;;5085784;28;20039;-72
2023/05/30 05:53:46;;;;;;;9.18;2.67;;;11.90;99.90;;;;;;5087820;28;20092;-70
2023/05/30 05:56:11;;;;;;;8.88;3.72;;;12.00;99.90;;;;;;5095260;28;20040;-71
2023/05/30 05:58:37;;;;;;;11.02;2.58;;;12.00;99.90;;;;;;5105391;28;20171;-72
2023/05/30 06:01:03;;;;;;;8.50;2.47;;;12.00;99.90;;;;;;5097023;28;20048;-71
2023/05/30 06:03:28;;;;;;;13.05;2.70;;;12.00;99.90;;;;;;5086236;28;20046;-72
2023/05/30 06:05:54;;;;;;;11.73;2.25;;;12.10;99.90;;;;;;5083226;28;20099;-72
2023/05/30 06:08:20;;;;;;;10.32;1.98;;;12.10;99.90;;;;;;5103148;28;20048;-76
2023/05/30 06:10:45;;;;;;;10.30;2.75;;;12.10;99.90;;;;;;5104678;28;20116;-73
2023/05/30 06:13:11;;;;;;;12.90;2.35;;;12.10;99.90;;;;;;5092880;28;20093;-71
2023/05/30 06:15:36;;;;;;;15.07;2.35;;;12.10;99.90;;;;;;5095932;28;20098;-72
2023/05/30 06:18:03;;;;;;;7.63;2.35;;;12.10;99.90;;;;;;5098763;28;20049;-72
2023/05/30 06:20:29;;;;;;;12.48;2.20;;;12.10;99.90;;;;;;5083830;28;20047;-76
2023/05/30 06:22:54;;;;;;;10.50;2.38;;;12.10;99.90;;;;;;5078271;28;20040;-70
2023/05/30 06:25:20;;;;;;;10.65;2.60;;;12.10;99.90;;;;;;5102121;28;20491;-73
2023/05/30 06:27:46;;;;;;;11.25;2.58;;;12.20;99.90;;;;;;5103539;28;20541;-72
2023/05/30 06:30:11;;;;;;;9.57;2.58;;;12.20;99.90;;;;;;5104695;28;20079;-70
2023/05/30 06:32:37;;;;;;;12.07;2.63;;;12.20;99.90;;;;;;5094461;28;20134;-72
2023/05/30 06:35:03;;;;;;;10.20;3.00;;;12.20;99.90;;;;;;5083232;28;20738;-71
2023/05/30 06:37:28;;;;;;;8.10;2.53;;;12.20;99.90;;;;;;5101416;28;20082;-72
2023/05/30 06:39:54;;;;;;;10.52;2.53;;;12.30;99.90;;;;;;5103487;28;20071;-72
2023/05/30 06:42:20;;;;;;;11.80;2.63;;;12.30;99.90;;;;;;5104979;28;20031;-71
2023/05/30 06:44:46;;;;;;;11.88;3.00;;;12.30;99.90;;;;;;5105108;28;20410;-72
2023/05/30 06:47:12;;;;;;;15.82;2.58;;;12.30;99.90;;;;;;5101932;28;20039;-70
2023/05/30 06:49:37;;;;;;;14.07;2.50;;;12.30;99.90;;;;;;5101512;28;20467;-71
2023/05/30 06:52:03;;;;;;;15.48;2.95;;;12.30;99.90;;;;;;5102226;28;20056;-72
2023/05/30 06:54:29;;;;;;;15.07;3.40;;;12.30;99.90;;;;;;5082588;28;20044;-71
2023/05/30 06:56:55;;;;;;;13.52;2.60;;;12.40;99.90;;;;;;5101411;28;20028;-71
2023/05/30 06:59:20;;;;;;;12.38;2.58;;;12.40;99.90;;;;;;5085431;28;20052;-71
2023/05/30 07:01:46;;;;;;;11.07;2.60;;;12.40;99.90;;;;;;5082525;28;20067;-71
2023/05/30 07:04:12;;;;;;;17.13;3.08;;;12.40;99.90;;;;;;5101256;28;20122;-70
2023/05/30 07:06:37;;;;;;;8.98;2.50;;;12.40;99.90;;;;;;5104002;28;20086;-72
2023/05/30 07:09:03;;;;;;;10.57;2.50;;;12.40;99.90;;;;;;5103929;28;20052;-73
2023/05/30 07:11:29;;;;;;;9.32;2.35;;;12.40;99.90;;;;;;5101898;28;20094;-72
2023/05/30 07:13:54;;;;;;;9.38;2.08;;;12.50;99.90;;;;;;5100703;28;20079;-72
2023/05/30 07:16:20;;;;;;;8.57;2.42;;;12.40;99.90;;;;;;5100634;28;20055;-76
2023/05/30 07:18:46;;;;;;;10.57;2.60;;;12.40;99.90;;;;;;5103846;28;20040;-71
2023/05/30 07:21:11;;;;;;;8.68;2.00;;;12.40;99.90;;;;;;5103918;28;20047;-70
2023/05/30 07:23:37;;;;;;;6.75;1.73;;;12.50;99.90;;;;;;5102304;28;20088;-70
2023/05/30 07:26:03;;;;;;;7.25;1.77;;;12.50;99.90;;;;;;5100614;28;20048;-71
2023/05/30 07:28:29;;;;;;;8.10;1.98;;;12.50;99.90;;;;;;5081960;28;20071;-71
2023/05/30 07:30:54;;;;;;;9.75;2.20;;;12.60;99.90;;;;;;5102975;28;20094;-72
2023/05/30 07:33:20;;;;;;;5.68;2.20;;;12.60;99.90;;;;;;5103432;28;20043;-73
2023/05/30 07:35:46;;;;;;;10.00;2.10;;;12.80;99.90;;;;;;5102599;28;20051;-72
2023/05/30 07:38:11;;;;;;;9.68;1.83;;;12.70;99.90;;;;;;5081149;28;20476;-72
2023/05/30 07:40:37;;;;;;;5.38;1.60;;;12.60;99.90;;;;;;5100093;28;20039;-73
2023/05/30 07:43:03;;;;;;;12.02;1.83;;;12.70;99.90;;;;;;5094849;28;20174;-74
2023/05/30 07:45:28;;;;;;;8.60;2.33;;;12.70;99.90;;;;;;5097035;28;20391;-72
2023/05/30 07:47:54;;;;;;;6.20;1.98;;;12.60;99.90;;;;;;5079626;28;20044;-73
2023/05/30 07:50:20;;;;;;;7.20;1.63;;;12.70;99.90;;;;;;5099984;28;20043;-70
2023/05/30 07:52:46;;;;;;;7.00;1.92;;;12.70;99.90;;;;;;5096707;28;20044;-71
2023/05/30 07:55:12;;;;;;;9.30;1.75;;;12.70;99.90;;;;;;5098318;28;20040;-71
2023/05/30 07:57:38;;;;;;;6.82;1.98;;;12.80;99.90;;;;;;5093655;28;20036;-72
2023/05/30 08:00:08;;;;;;;8.27;2.35;;;12.80;99.90;;;;;;5094365;28;20489;-69
2023/05/30 08:02:37;;;;;;;11.43;2.33;;;12.90;99.90;;;;;;5102442;28;20050;-70
2023/05/30 08:05:03;;;;;;;6.50;1.73;;;13.10;99.90;;;;;;5099583;28;20610;-71
2023/05/30 08:07:31;;;;;;;10.82;2.85;;;13.20;99.90;;;;;;5100644;28;20130;-73
2023/05/30 08:09:57;;;;;;;5.70;1.63;;;13.20;99.90;;;;;;5088308;28;20046;-72
2023/05/30 08:12:28;;;;;;;5.57;1.67;;;13.30;99.90;;;;;;5067319;28;20457;-71
2023/05/30 08:14:55;;;;;;;5.68;1.65;;;13.30;99.90;;;;;;5099387;28;20036;-72
2023/05/30 08:17:23;;;;;;;4.35;1.10;;;13.30;99.90;;;;;;5085775;28;20044;-72
2023/05/30 08:19:52;;;;;;;6.00;1.45;;;13.20;99.90;;;;;;5099542;28;21414;-73
2023/05/30 08:22:21;;;;;;;2.67;0.88;;;13.20;99.90;;;;;;5086881;28;20044;-73
2023/05/30 08:24:51;;;;;;;5.93;0.98;;;13.10;99.90;;;;;;5099569;28;20059;-72
2023/05/30 08:27:17;;;;;;;5.43;0.80;;;13.00;99.90;;;;;;5098203;28;20044;-71
2023/05/30 08:29:43;;;;;;;2.75;1.05;;;13.00;99.90;;;;;;5101609;28;20040;-72
2023/05/30 08:32:09;;;;;;;5.88;0.90;;;13.00;99.90;;;;;;5095988;28;20541;-70
2023/05/30 08:34:34;;;;;;;2.30;0.70;;;13.10;99.90;;;;;;5092674;28;20040;-72
2023/05/30 08:37:01;;;;;;;2.97;0.50;;;13.20;99.90;;;;;;5100837;28;20478;-72
2023/05/30 08:39:26;;;;;;;1.48;0.50;;;13.20;99.90;;;;;;5097409;28;20104;-72
2023/05/30 08:41:52;;;;;;;2.38;0.50;;;13.40;99.90;;;;;;5098005;28;20415;-70
2023/05/30 08:44:19;;;;;;;2.15;0.57;;;13.50;99.90;;;;;;5088344;28;20038;-71
2023/05/30 08:46:45;;;;;;;1.50;0.63;;;13.60;99.90;;;;;;5103131;28;20485;-71
2023/05/30 08:49:15;;;;;;;1.00;0.40;;;13.70;99.90;;;;;;5092905;28;20127;-72
2023/05/30 08:51:43;;;;;;;2.38;0.70;;;13.70;99.90;;;;;;5099786;28;20126;-71
2023/05/30 08:54:17;;;;;;;1.63;0.55;;;13.80;99.90;;;;;;5101202;28;20043;-70
2023/05/30 08:56:47;;;;;;;3.50;0.60;;;13.80;99.90;;;;;;5102585;28;20497;-72
2023/05/30 08:59:17;;;;;;;0.68;0.50;;;13.90;99.90;;;;;;5099637;28;20510;-72
2023/05/30 09:01:43;;;;;;;3.92;0.55;;;13.90;99.90;;;;;;5078853;28;20052;-71
2023/05/30 09:04:11;;;;;;;2.00;0.35;;;14.10;99.90;;;;;;5099175;28;20082;-70
2023/05/30 09:06:38;;;;;;;2.25;0.57;;;14.10;99.90;;;;;;5099339;28;20048;-71
2023/05/30 09:09:08;;;;;;;1.90;0.60;;;14.40;99.90;;;;;;5099338;28;20044;-72
2023/05/30 09:11:34;;;;;;;1.13;0.47;;;14.50;99.90;;;;;;5091359;28;20054;-69
2023/05/30 09:14:00;;;;;;;1.10;0.47;;;14.60;99.90;;;;;;5090563;28;20036;-69
2023/05/30 09:16:26;;;;;;;2.05;0.40;;;14.60;99.90;;;;;;5081511;28;20044;-69
2023/05/30 09:18:51;;;;;;;0.90;0.40;;;14.70;99.90;;;;;;5089247;28;20089;-70
2023/05/30 09:21:17;;;;;;;2.65;0.52;;;14.90;99.90;;;;;;5102337;28;20051;-68
2023/05/30 09:23:43;;;;;;;2.30;0.50;;;15.10;99.90;;;;;;5099936;28;20051;-68
2023/05/30 09:26:14;;;;;;;2.42;0.50;;;15.10;99.90;;;;;;5098482;28;20040;-68
2023/05/30 09:28:39;;;;;;;1.50;0.40;;;15.10;99.90;;;;;;5089342;28;20044;-69
2023/05/30 09:31:06;;;;;;;1.58;0.47;;;15.10;99.90;;;;;;5094510;28;20091;-70
2023/05/30 09:33:40;;;;;;;0.65;0.32;;;15.10;99.90;;;;;;5088688;28;20162;-67
2023/05/30 09:36:07;;;;;;;1.50;0.50;;;15.20;99.90;;;;;;5085978;28;20059;-69
2023/05/30 09:38:33;;;;;;;0.95;0.38;;;15.20;99.90;;;;;;5090654;28;20852;-72
2023/05/30 09:41:02;;;;;;;2.03;0.40;;;15.20;99.90;;;;;;5092116;28;20044;-69
2023/05/30 09:43:34;;;;;;;0.57;0.28;;;15.10;99.90;;;;;;5090859;28;20048;-68
2023/05/30 09:46:04;;;;;;;0.70;0.30;;;15.20;99.90;;;;;;5087333;28;20040;-69
2023/05/30 09:48:30;;;;;;;1.13;0.30;;;15.20;99.90;;;;;;5098553;28;20040;-68
2023/05/30 09:51:00;;;;;;;0.50;0.20;;;15.30;99.90;;;;;;5107292;28;20043;-68
2023/05/30 09:53:32;;;;;;;2.00;0.60;;;15.30;99.90;;;;;;5098835;28;20162;-69
2023/05/30 09:56:01;;;;;;;2.78;0.60;;;15.00;99.90;;;;;;5097898;28;20036;-69
2023/05/30 09:58:26;;;;;;;3.50;0.60;;;15.00;99.90;;;;;;5069912;28;20039;-69
2023/05/30 10:00:55;;;;;;;2.67;1.00;;;15.10;99.90;;;;;;5087206;28;20369;-70
2023/05/30 10:03:39;;;;;;;1.80;0.70;;;14.90;99.90;;;;;;5096504;28;20073;-69
2023/05/30 10:06:13;;;;;;;5.45;0.73;;;14.90;99.90;;;;;;5096535;28;20066;-70
2023/05/30 10:08:45;;;;;;;1.88;0.40;;;14.80;99.90;;;;;;5085119;28;20032;-69
2023/05/30 10:11:12;;;;;;;1.73;0.68;;;14.90;99.90;;;;;;5076191;28;20075;-71
2023/05/30 10:13:39;;;;;;;1.20;0.55;;;14.90;99.90;;;;;;5079118;28;20048;-68
2023/05/30 10:16:14;;;;;;;0.90;0.38;;;14.90;99.90;;;;;;5090957;28;20054;-68
2023/05/30 10:18:48;;;;;;;3.58;0.70;;;14.90;99.90;;;;;;5082236;28;20138;-68
2023/05/30 10:21:15;;;;;;;0.93;0.60;;;15.00;99.90;;;;;;5097316;28;20052;-67
2023/05/30 10:23:41;;;;;;;1.95;0.57;;;15.00;99.90;;;;;;5099243;28;20085;-67
2023/05/30 10:26:09;;;;;;;1.80;0.43;;;14.90;99.90;;;;;;5098496;28;20100;-70
2023/05/30 10:28:36;;;;;;;1.08;0.45;;;14.90;99.90;;;;;;5097363;28;20481;-71
2023/05/30 10:31:03;;;;;;;2.28;0.50;;;14.90;99.90;;;;;;5098715;28;20121;-69
2023/05/30 10:33:35;;;;;;;2.45;0.60;;;14.90;99.90;;;;;;5096970;28;20504;-68
2023/05/30 10:36:01;;;;;;;1.38;0.50;;;14.80;99.90;;;;;;5081489;28;20126;-67
2023/05/30 10:38:31;;;;;;;2.15;0.60;;;14.80;99.90;;;;;;5102737;28;20039;-68
2023/05/30 10:41:05;;;;;;;2.53;0.50;;;14.80;99.90;;;;;;5096329;28;20036;-70
2023/05/30 10:43:49;;;;;;;7.68;0.88;;;14.70;99.90;;;;;;5089473;28;20811;-69
2023/05/30 10:46:29;;;;;;;4.00;0.68;;;14.80;99.90;;;;;;5068595;28;20139;-68
2023/05/30 10:49:07;;;;;;;2.85;0.80;;;14.80;99.90;;;;;;5098227;28;20713;-69
2023/05/30 10:51:58;;;;;;;1.85;0.52;;;14.80;99.90;;;;;;5101620;28;20044;-67
2023/05/30 10:54:25;;;;;;;5.60;0.90;;;14.80;99.90;;;;;;5088444;28;20088;-70
2023/05/30 10:56:51;;;;;;;3.33;0.52;;;14.90;99.90;;;;;;5092554;28;20044;-72
2023/05/30 10:59:20;;;;;;;2.17;0.50;;;14.90;99.90;;;;;;5099937;28;20086;-69
2023/05/30 11:02:03;;;;;;;0.70;0.50;;;15.00;99.90;;;;;;5097514;28;20039;-71
2023/05/30 11:04:32;;;;;;;2.45;0.60;;;15.10;99.90;;;;;;5081684;28;20048;-70
2023/05/30 11:06:58;;;;;;;2.08;0.85;;;15.20;99.90;;;;;;5101594;28;20402;-68
2023/05/30 11:09:26;;;;;;;2.08;0.40;;;15.30;99.90;;;;;;5101414;28;20059;-71
2023/05/30 11:11:59;;;;;;;3.15;0.65;;;15.30;99.90;;;;;;5101315;28;20526;-69
2023/05/30 11:14:33;;;;;;;1.38;0.63;;;15.50;99.90;;;;;;5096588;28;20554;-71
2023/05/30 11:17:07;;;;;;;1.30;0.60;;;15.50;99.90;;;;;;5101529;28;20082;-70
2023/05/30 11:19:39;;;;;;;1.95;0.50;;;15.60;99.90;;;;;;5103034;28;20054;-71
2023/05/30 11:22:17;;;;;;;1.60;0.63;;;15.70;99.90;;;;;;5104618;28;20043;-70
2023/05/30 11:24:44;;;;;;;1.67;0.80;;;15.80;99.90;;;;;;5100654;28;20041;-69
2023/05/30 11:27:13;;;;;;;0.85;0.70;;;15.70;99.90;;;;;;5098184;28;20039;-70
2023/05/30 11:29:48;;;;;;;1.67;0.60;;;15.60;99.90;;;;;;5101522;28;20126;-68
2023/05/30 11:32:17;;;;;;;3.47;0.80;;;15.50;99.90;;;;;;5101229;28;20855;-72
2023/05/30 11:34:43;;;;;;;1.40;0.50;;;15.60;99.90;;;;;;5101325;28;20058;-69
2023/05/30 11:37:10;;;;;;;1.67;0.60;;;15.50;99.90;;;;;;5091996;28;20119;-70
2023/05/30 11:39:36;;;;;;;0.73;0.50;;;15.50;99.90;;;;;;5082381;28;20048;-70
2023/05/30 11:42:07;;;;;;;1.88;0.60;;;15.40;99.90;;;;;;5095311;28;20109;-69
2023/05/30 11:44:33;;;;;;;2.40;0.65;;;15.40;99.90;;;;;;5100717;28;20474;-69
2023/05/30 11:47:04;;;;;;;0.93;0.50;;;15.50;99.90;;;;;;5102262;28;20039;-70
2023/05/30 11:49:30;;;;;;;1.88;0.60;;;15.50;99.90;;;;;;5103907;28;20119;-66
2023/05/30 11:51:57;;;;;;;3.22;0.50;;;15.60;99.90;;;;;;5103617;28;20047;-68
2023/05/30 11:54:23;;;;;;;1.45;0.70;;;15.60;99.90;;;;;;5100712;28;20036;-70
2023/05/30 11:56:50;;;;;;;2.00;0.70;;;15.50;99.90;;;;;;5082257;28;20093;-67
2023/05/30 11:59:26;;;;;;;2.88;0.63;;;15.60;99.90;;;;;;5091297;28;20101;-70
2023/05/30 12:01:52;;;;;;;1.52;0.60;;;15.70;99.90;;;;;;5100771;28;20122;-69
2023/05/30 12:04:21;;;;;;;3.00;0.60;;;15.80;99.90;;;;;;5099375;28;20131;-68
2023/05/30 12:06:47;;;;;;;1.67;0.80;;;15.80;99.90;;;;;;5078721;28;20063;-69
2023/05/30 12:09:12;;;;;;;2.60;0.80;;;15.80;99.90;;;;;;5100794;28;20048;-74
2023/05/30 12:11:48;;;;;;;1.30;0.77;;;15.80;99.90;;;;;;5086223;28;20050;-69
2023/05/30 12:14:14;;;;;;;0.93;0.60;;;15.90;99.90;;;;;;5103497;28;20131;-69
2023/05/30 12:16:40;;;;;;;6.03;1.33;;;16.00;99.90;;;;;;5100115;28;20059;-70
2023/05/30 12:19:06;;;;;;;1.58;0.80;;;16.10;99.90;;;;;;5100343;28;20055;-69
2023/05/30 12:21:36;;;;;;;2.00;0.80;;;16.10;99.90;;;;;;5100993;28;20406;-70
2023/05/30 12:24:08;;;;;;;1.65;0.90;;;16.10;99.90;;;;;;5103041;28;20081;-69
2023/05/30 12:26:33;;;;;;;3.72;0.82;;;16.20;99.90;;;;;;5102666;28;20044;-70
2023/05/30 12:29:06;;;;;;;3.25;0.95;;;16.20;99.90;;;;;;5100087;28;20035;-69
2023/05/30 12:31:33;;;;;;;1.40;0.85;;;16.30;99.90;;;;;;5099908;28;20640;-70
2023/05/30 12:34:00;;;;;;;3.15;1.27;;;16.40;99.90;;;;;;5103096;28;20070;-69
2023/05/30 12:36:25;;;;;;;2.85;1.00;;;16.50;99.90;;;;;;5103511;28;20051;-71
2023/05/30 12:38:55;;;;;;;3.03;0.90;;;16.50;99.90;;;;;;5101955;28;20043;-70
2023/05/30 12:41:30;;;;;;;2.42;0.90;;;16.70;99.90;;;;;;5079932;28;20494;-70
2023/05/30 12:43:57;;;;;;;2.33;1.00;;;16.70;99.90;;;;;;5100131;28;20040;-70